Butler, New Jersey
Current Conditions -  °F | °C
As of 2:53 PM on Tuesday 21 Oct 2014 (Local Time) from KCDW Reporting Station
Light Rain Light Rain  
Wind Chill: 63°   Ceiling: 3400
Heat Index: 63°   Visibility: 10mi
Dew Point: 50°   Wind: 7mph
Humidity: 63%   Direction: 170°S
Pressure: 29.84"   Gusts: NA
Location:  41°N, 74.34°W
Report Text: KCDW 211853Z 17006KT 10SM -RA BKN034 OVC040 17/10 A2984 RMK AO2 RAB53 SLP108 P0000 T01720100
Loading
Personal Weather Stations






























Interactive Weather Map
Tropical Storm Tracking
New forecast layout! Learn more

10-Day Weather Forecast

Advertisements
Track Severe Weather on mobile